Latest Weather Observations for Wudinna Airport

IDS60801

Issued at 11:31 am CDT Monday 18 October 2021 (issued every 10 minutes, with the page automatically refreshed every 10 minutes)

About weather observations | Map of weather stations | Latest weather observations for SA | Other Formats
Station Details ID: 018083 Name: WUDINNA AERO Lat: -33.04 Lon: 135.45 Height: 86.4 m
Data from the previous 72 hours. | See also: Recent months at Wudinna Airport
Date/Time
CDT
Temp
°C
App
Temp
°C
Dew
Point
°C
Rel
Hum
%
Delta-T
°C
Wind Press
QNH
hPa
Press
MSL
hPa
Rain since
9am
mm
Dir  Spd
km/h
Gust
km/h
Spd
kts
Gust
kts
18/11:30am 24.7 21.3 7.8 34 9.0 ESE 15 20 8 11 1015.1 1015.0 0.0
18/11:00am 22.7 20.6 9.8 44 7.0 SE 11 17 6 9 1015.4 1015.3 0.0
18/10:30am 20.5 18.3 9.4 49 5.9 SE 11 15 6 8 1015.4 1015.3 0.0
18/10:00am 19.3 18.0 11.1 59 4.5 E 9 13 5 7 1015.4 1015.3 0.0
18/09:30am 16.9 15.5 11.0 68 3.2 ESE 9 13 5 7 1015.3 1015.2 0.0
18/09:00am 15.1 14.1 11.1 77 2.1 SE 7 11 4 6 1015.2 1015.1 0.0
18/08:30am 13.8 12.8 10.2 79 1.9 ENE 6 7 3 4 1014.9 1014.8 0.0
18/08:00am 13.2 13.0 10.4 83 1.5 ESE 2 9 1 5 1014.3 1014.2 0.0
18/07:30am 10.5 9.0 9.1 91 0.7 S 7 9 4 5 1013.8 1013.7 0.0
18/07:00am 8.7 8.1 7.3 91 0.7 CALM 0 2 0 1 1013.2 1013.0 0.0
18/06:30am 8.4 5.6 7.0 91 0.7 NE 11 13 6 7 1012.4 1012.2 0.0
18/06:00am 8.5 7.4 6.8 89 0.8 N 2 6 1 3 1012.4 1012.2 0.0
18/05:30am 9.3 8.4 7.6 89 0.8 E 2 7 1 4 1011.9 1011.7 0.0
18/05:00am 9.3 7.0 7.4 88 0.9 NNE 9 11 5 6 1011.6 1011.4 0.0
18/04:30am 10.2 8.2 8.5 89 0.8 NNE 9 9 5 5 1011.5 1011.3 0.0
18/04:00am 10.4 9.6 8.2 86 1.1 ESE 2 9 1 5 1011.5 1011.3 0.0
18/03:30am 10.6 10.1 7.8 83 1.4 CALM 0 0 0 0 1011.7 1011.5 0.0
18/03:00am 12.3 12.0 8.8 79 1.8 CALM 0 0 0 0 1011.6 1011.4 0.0
18/02:30am 13.7 12.0 9.7 77 2.1 SE 9 13 5 7 1011.4 1011.2 0.0
18/02:00am 13.9 12.0 9.1 73 2.4 SSE 9 13 5 7 1011.7 1011.5 0.0
18/01:30am 14.8 12.3 8.3 65 3.3 SSE 11 17 6 9 1011.6 1011.4 0.0
18/01:00am 15.5 13.0 8.3 62 3.7 SSE 11 17 6 9 1011.6 1011.4 0.0
18/12:30am 16.4 13.9 8.4 59 4.1 SSE 11 17 6 9 1011.2 1011.0 0.0
18/12:00am 16.5 14.9 8.7 60 4.0 SSW 7 11 4 6 1011.6 1011.4 0.0
 
Date/Time
CDT
Temp
°C
App
Temp
°C
Dew
Point
°C
Rel
Hum
%
Delta-T
°C
Wind Press
QNH
hPa
Press
MSL
hPa
Rain since
9am
mm
Dir  Spd
km/h
Gust
km/h
Spd
kts
Gust
kts
17/11:30pm 17.4 15.4 8.5 56 4.6 SSW 9 13 5 7 1011.5 1011.3 0.0
17/11:00pm 18.5 15.3 8.5 52 5.2 SSW 15 17 8 9 1011.6 1011.4 0.0
17/10:30pm 19.0 15.1 8.6 51 5.4 WSW 19 22 10 12 1011.6 1011.4 0.0
17/10:00pm 20.4 17.5 8.1 45 6.4 SE 13 26 7 14 1010.9 1010.7 0.0
17/09:30pm 20.0 17.5 8.4 47 6.1 SSE 11 20 6 11 1010.6 1010.4 0.0
17/09:00pm 21.1 18.9 8.0 43 6.9 ESE 9 15 5 8 1010.0 1009.8 0.0
17/08:30pm 21.7 18.0 7.9 41 7.2 SE 17 20 9 11 1009.7 1009.5 0.0
17/08:00pm 23.4 18.9 6.2 33 8.8 SSE 19 28 10 15 1009.4 1009.2 0.0
17/07:30pm 25.0 20.5 6.2 30 9.7 S 19 22 10 12 1008.9 1008.7 0.0
17/07:00pm 26.0 21.4 5.6 27 10.5 SW 19 24 10 13 1008.7 1008.5 0.0
17/06:30pm 28.5 24.6 -1.6 14 13.9 WSW 9 15 5 8 1008.4 1008.2 0.0
17/06:00pm 28.0 25.0 -2.0 14 13.7 WNW 4 13 2 7 1008.1 1007.9 0.0
17/05:30pm 28.6 24.3 -1.5 14 13.9 NW 11 17 6 9 1008.0 1007.8 0.0
17/05:00pm 28.4 22.5 -0.7 15 13.6 NW 20 30 11 16 1008.1 1007.9 0.0
17/04:30pm 28.7 23.3 -1.4 14 14.0 NW 17 24 9 13 1008.0 1007.8 0.0
17/04:00pm 28.4 24.5 -1.6 14 13.8 NNW 9 20 5 11 1008.1 1007.9 0.0
17/03:30pm 30.4 24.6 -0.1 14 14.7 WNW 20 32 11 17 1008.4 1008.2 0.0
17/03:00pm 29.6 24.5 -1.7 13 14.5 W 15 24 8 13 1008.6 1008.4 0.0
17/02:30pm 29.3 23.4 -0.9 14 14.2 NNW 20 35 11 19 1008.9 1008.7 0.0
17/02:00pm 29.0 23.8 -0.2 15 13.8 N 17 30 9 16 1009.4 1009.2 0.0
17/01:30pm 28.7 22.8 -0.5 15 13.8 NNW 20 32 11 17 1009.8 1009.6 0.0
17/01:00pm 28.9 23.5 1.4 17 13.4 NNW 19 30 10 16 1010.2 1010.0 0.0
17/12:30pm 27.4 21.5 1.8 19 12.4 NNW 22 33 12 18 1010.6 1010.4 0.0
17/12:00pm 26.9 20.5 3.4 22 11.7 N 26 39 14 21 1010.9 1010.7 0.0
17/11:30am 26.4 19.7 3.6 23 11.4 N 28 41 15 22 1011.2 1011.0 0.0
17/11:00am 24.7 17.0 3.4 25 10.5 N 33 43 18 23 1011.5 1011.3 0.0
17/10:30am 24.1 15.9 2.9 25 10.3 N 35 46 19 25 1011.6 1011.4 0.0
17/10:00am 22.2 14.6 3.8 30 8.9 N 33 44 18 24 1011.6 1011.4 0.0
17/09:30am 20.6 13.1 4.2 34 7.9 N 33 44 18 24 1011.9 1011.7 0.0
17/09:00am 18.8 12.4 5.3 41 6.6 NNE 28 39 15 21 1012.1 1011.9 0.0
17/08:30am 16.9 11.8 5.8 48 5.4 NNE 22 32 12 17 1012.0 1011.8 0.0
17/08:00am 14.6 10.0 6.4 58 4.0 NE 20 30 11 16 1012.2 1012.0 0.0
17/07:30am 12.2 7.6 6.7 69 2.6 NE 20 28 11 15 1012.0 1011.8 0.0
17/07:00am 10.3 6.3 6.6 78 1.7 NE 17 24 9 13 1012.0 1011.8 0.0
17/06:30am 9.0 5.8 7.0 87 0.9 NE 13 19 7 10 1011.9 1011.7 0.0
17/06:00am 7.0 4.3 5.5 90 0.7 ENE 9 11 5 6 1012.0 1011.8 0.0
17/05:30am 6.5 5.4 5.0 90 0.7 CALM 0 0 0 0 1012.1 1011.9 0.0
17/05:00am 6.9 5.8 5.2 89 0.8 CALM 0 0 0 0 1012.2 1012.0 0.0
17/04:30am 7.4 5.2 5.5 88 0.9 ENE 6 7 3 4 1012.3 1012.1 0.0
17/04:00am 8.3 7.0 6.1 86 1.0 E 2 7 1 4 1012.6 1012.4 0.0
17/03:30am 8.9 6.4 6.7 86 1.0 ESE 9 13 5 7 1012.7 1012.5 0.0
17/03:00am 9.1 6.6 6.5 84 1.2 ESE 9 11 5 6 1013.1 1012.9 0.0
17/02:30am 9.5 7.6 6.8 83 1.3 E 6 11 3 6 1013.5 1013.3 0.0
17/02:00am 10.1 7.7 7.0 81 1.5 E 9 13 5 7 1014.0 1013.9 0.0
17/01:30am 10.5 7.4 7.2 80 1.6 E 13 15 7 8 1014.3 1014.2 0.0
17/01:00am 10.8 8.0 7.1 78 1.8 E 11 15 6 8 1014.8 1014.7 0.0
17/12:30am 10.9 8.2 7.2 78 1.8 E 11 15 6 8 1015.4 1015.3 0.0
17/12:00am 11.3 8.5 7.0 75 2.1 ESE 11 17 6 9 1015.7 1015.6 0.0
 
Date/Time
CDT
Temp
°C
App
Temp
°C
Dew
Point
°C
Rel
Hum
%
Delta-T
°C
Wind Press
QNH
hPa
Press
MSL
hPa
Rain since
9am
mm
Dir  Spd
km/h
Gust
km/h
Spd
kts
Gust
kts
16/11:30pm 12.0 9.2 6.9 71 2.4 ESE 11 17 6 9 1016.0 1015.9 0.0
16/11:00pm 12.5 9.3 7.0 69 2.7 SE 13 17 7 9 1016.2 1016.1 0.0
16/10:30pm 12.8 10.1 7.3 69 2.7 SSE 11 15 6 8 1016.2 1016.1 0.0
16/10:00pm 13.6 10.5 7.2 65 3.1 SSE 13 20 7 11 1015.9 1015.8 0.0
16/09:30pm 14.2 10.3 7.3 63 3.4 S 17 24 9 13 1015.6 1015.5 0.0
16/09:00pm 15.1 11.6 7.4 60 3.8 SSW 15 24 8 13 1015.1 1015.0 0.0
16/08:30pm 16.7 14.4 5.9 49 5.3 SE 7 9 4 5 1015.0 1014.9 0.0
16/08:00pm 17.7 14.6 5.6 45 5.9 ESE 11 13 6 7 1014.7 1014.6 0.0
16/07:30pm 19.1 15.9 5.2 40 6.8 SE 11 17 6 9 1014.5 1014.4 0.0
16/07:00pm 20.3 17.5 3.1 32 8.1 SE 7 15 4 8 1014.1 1014.0 0.0
16/06:30pm 20.8 18.1 3.5 32 8.3 SE 7 11 4 6 1014.0 1013.9 0.0
16/06:00pm 21.1 17.7 3.8 32 8.3 SSW 11 17 6 9 1013.8 1013.7 0.0
16/05:30pm 20.8 17.4 4.0 33 8.1 SSW 11 19 6 10 1013.8 1013.7 0.0
16/05:00pm 21.3 18.3 4.0 32 8.4 E 9 17 5 9 1013.9 1013.8 0.0
16/04:30pm 21.6 18.6 4.2 32 8.5 W 9 15 5 8 1014.1 1014.0 0.0
16/04:00pm 21.1 18.6 3.8 32 8.3 NW 6 15 3 8 1014.4 1014.3 0.0
16/03:30pm 21.3 17.6 4.4 33 8.2 W 13 19 7 10 1014.7 1014.6 0.0
16/03:00pm 21.3 17.6 4.4 33 8.2 S 13 22 7 12 1015.2 1015.1 0.0
16/02:30pm 19.8 16.5 4.3 36 7.5 WSW 11 19 6 10 1015.8 1015.7 0.0
16/02:00pm 19.3 16.0 4.6 38 7.1 SSW 11 19 6 10 1016.3 1016.2 0.0
16/01:30pm 19.1 15.5 4.8 39 6.9 S 13 15 7 8 1016.8 1016.7 0.0
16/01:00pm 18.3 15.1 5.2 42 6.4 SW 11 20 6 11 1017.3 1017.2 0.0
16/12:30pm 17.7 15.4 5.6 45 5.9 NW 7 13 4 7 1017.9 1017.8 0.0
16/12:00pm 16.8 14.3 4.8 45 5.7 SW 7 13 4 7 1018.5 1018.4 0.0
16/11:30am 15.8 13.4 5.4 50 5.0 E 7 13 4 7 1018.8 1018.7 0.0
16/11:00am 15.8 13.5 5.7 51 4.9 ESE 7 11 4 6 1019.2 1019.0 0.0
16/10:30am 15.3 13.6 6.1 54 4.4 E 4 13 2 7 1019.4 1019.2 0.0
16/10:00am 14.6 12.5 5.7 55 4.2 SSE 6 11 3 6 1019.4 1019.2 0.0
16/09:30am 14.3 12.0 5.7 56 4.1 SSE 7 22 4 12 1019.4 1019.2 0.0
16/09:00am 13.9 11.8 5.8 58 3.8 SSE 6 11 3 6 1019.0 1018.9 0.0
16/08:30am 13.4 11.9 7.0 65 3.1 SSE 4 9 2 5 1018.8 1018.7 0.0
16/08:00am 12.9 10.7 6.3 64 3.2 SSE 7 9 4 5 1018.7 1018.6 0.0
16/07:30am 12.7 10.8 6.7 67 2.9 SSE 6 7 3 4 1018.5 1018.4 0.0
16/07:00am 12.5 11.9 7.2 70 2.6 CALM 0 0 0 0 1018.3 1018.2 0.0
16/06:30am 12.5 10.6 6.5 67 2.9 SSE 6 7 3 4 1018.1 1018.0 0.0
16/06:00am 12.4 10.4 7.1 70 2.6 SSW 7 11 4 6 1017.9 1017.8 0.0
16/05:30am 12.4 10.2 7.7 73 2.3 S 9 11 5 6 1017.8 1017.7 0.0
16/05:00am 12.3 10.7 8.8 79 1.8 SSW 7 9 4 5 1017.8 1017.7 0.0
16/04:30am 12.2 10.6 8.9 80 1.7 SSW 7 11 4 6 1017.8 1017.7 0.0
16/04:00am 12.2 10.8 9.0 81 1.6 SW 6 7 3 4 1017.9 1017.8 0.0
16/03:30am 12.3 10.3 8.8 79 1.8 SSE 9 11 5 6 1018.1 1018.0 0.0
16/03:00am 12.4 10.5 9.1 80 1.7 S 9 15 5 8 1018.0 1017.9 0.0
16/02:30am 12.4 10.5 9.1 80 1.7 S 9 11 5 6 1018.2 1018.1 0.0
16/02:00am 12.5 10.6 9.1 80 1.7 SSE 9 13 5 7 1018.5 1018.4 0.0
16/01:30am 12.5 11.0 9.3 81 1.6 SSE 7 11 4 6 1018.6 1018.5 0.0
16/01:00am 12.4 11.2 9.4 82 1.5 SSE 6 7 3 4 1018.9 1018.8 0.0
16/12:30am 12.2 12.1 9.4 83 1.4 CALM 0 0 0 0 1019.0 1018.9 0.0
16/12:00am 11.7 11.5 8.9 83 1.4 CALM 0 0 0 0 1018.9 1018.8 0.0
 
Date/Time
CDT
Temp
°C
App
Temp
°C
Dew
Point
°C
Rel
Hum
%
Delta-T
°C
Wind Press
QNH
hPa
Press
MSL
hPa
Rain since
9am
mm
Dir  Spd
km/h
Gust
km/h
Spd
kts
Gust
kts
15/11:30pm 11.3 11.1 8.9 85 1.2 CALM 0 0 0 0 1018.9 1018.8 0.0
15/11:00pm 10.3 9.5 8.1 86 1.1 SW 2 9 1 5 1019.0 1018.9 0.0
15/10:30pm 10.2 7.9 7.4 83 1.3 WSW 9 11 5 6 1018.9 1018.8 0.0
15/10:00pm 11.0 8.7 7.3 78 1.8 WSW 9 11 5 6 1018.7 1018.6 0.0
15/09:30pm 13.2 9.4 7.6 69 2.7 SW 17 22 9 12 1018.5 1018.4 0.0
15/09:00pm 14.3 9.9 7.4 63 3.4 SSW 20 30 11 16 1018.1 1018.0 0.0
15/08:30pm 14.8 10.2 6.6 58 4.0 SW 20 28 11 15 1017.8 1017.7 0.0
15/08:00pm 14.5 10.7 7.5 63 3.5 SW 17 20 9 11 1017.4 1017.3 0.0
15/07:30pm 15.5 10.3 7.3 58 4.1 SSW 24 28 13 15 1017.1 1017.0 0.0
15/07:00pm 16.1 11.5 6.3 52 4.8 SSW 20 24 11 13 1016.7 1016.6 0.0
15/06:30pm 16.5 10.6 5.8 49 5.2 SSW 26 33 14 18 1016.3 1016.2 0.0
15/06:00pm 17.1 11.3 6.3 49 5.3 SSW 26 33 14 18 1016.2 1016.1 0.0
15/05:30pm 17.3 10.5 6.8 50 5.2 SSW 32 41 17 22 1015.9 1015.8 0.0
15/05:00pm 19.2 13.1 6.7 44 6.3 SSW 28 37 15 20 1015.6 1015.5 0.0
15/04:30pm 18.4 12.0 6.9 47 5.8 SSW 30 39 16 21 1015.4 1015.3 0.0
15/04:00pm 19.0 12.8 6.2 43 6.4 SW 28 37 15 20 1015.3 1015.2 0.0
15/03:30pm 19.6 14.1 7.7 46 6.1 SSW 26 35 14 19 1015.5 1015.4 0.0
15/03:00pm 18.7 12.9 7.8 49 5.6 SW 28 43 15 23 1015.7 1015.6 0.0
15/02:30pm 18.9 13.4 7.4 47 5.8 SW 26 33 14 18 1016.0 1015.9 0.0
15/02:00pm 18.7 12.7 7.2 47 5.8 SW 28 35 15 19 1016.1 1016.0 0.0
15/01:30pm 18.3 12.6 8.3 52 5.2 SSW 28 44 15 24 1016.2 1016.1 0.0
15/01:00pm 18.8 12.9 7.6 48 5.7 SSW 28 44 15 24 1016.3 1016.2 0.0
15/12:30pm 19.0 12.9 8.1 49 5.6 SSW 30 39 16 21 1016.5 1016.4 0.0
15/12:00pm 18.0 11.5 8.0 52 5.1 SSW 32 43 17 23 1016.6 1016.5 0.0

Other formats

Comma delimited format used in spreadsheet applications
http://www.bom.gov.au/fwo/IDS60801/IDS60801.95654.axf

JavaScript Object Notation format (JSON) in row-major order
http://www.bom.gov.au/fwo/IDS60801/IDS60801.95654.json

Data quality

Most of these data are generated automatically and are frequently updated. Quality checks on data are not normally performed. It is possible for incorrect values to appear. Refer to information at About Latest Weather Observations and please check the disclaimer before using these data.